Terminal Aerodrome Forecast
Issued by NWS Mt. Holly, NJ

Home | Current Version | Previous Version | Text Only | Print | Product List | Glossary On
Versions: 1 2 3 4 5 6 7 8 9 10 11 12 13 14 15 16 17 18
000
FTAK31 PANC 230225 AAA
TAFABE
TAF AMD
PABE 230225Z 2302/2324 35009KT P6SM SCT015 BKN035
      TEMPO 2302/2306 -SHRA BKN025
     FM232200 33012KT 6SM -RA BKN015 OVC025=

USA.gov is the U.S. government's official web portal to all federal, state and local government web resources and services.